Time;durP1;ratioP1;P1;durP2;ratioP2;P2;SDS_P1;SDS_P2;PMS_P1;PMS_P2;Temp;Humidity;BMP_temperature;BMP_pressure;BME280_temperature;BME280_humidity;BME280_pressure;Samples;Min_cycle;Max_cycle;Signal;HPM_P1;HPM_P2
2023/03/03 00:01:43;;;;;;;33.60;13.40;;;;;;;1.45;63.08;100686.61;105351;1256;62390;-55
2023/03/03 00:04:11;;;;;;;34.40;15.80;;;;;;;1.55;63.02;100682.77;105414;1255;59953;-55
2023/03/03 00:06:40;;;;;;;33.60;13.50;;;;;;;1.66;62.77;100678.03;105505;1260;74151;-55
2023/03/03 00:09:09;;;;;;;37.10;17.40;;;;;;;1.77;62.59;100677.29;105522;1256;71443;-55
2023/03/03 00:11:37;;;;;;;37.30;17.30;;;;;;;1.87;62.56;100674.27;105597;1254;73357;-55
2023/03/03 00:14:18;;;;;;;46.80;20.40;;;;;;;1.97;62.56;100672.31;105404;1260;60574;-55
2023/03/03 00:16:48;;;;;;;43.70;20.40;;;;;;;2.05;62.50;100671.52;105448;1255;60009;-55
2023/03/03 00:19:18;;;;;;;45.30;22.50;;;;;;;2.11;62.28;100670.23;105461;1260;65362;-55
2023/03/03 00:21:48;;;;;;;45.60;21.00;;;;;;;2.16;62.12;100667.77;105479;1255;70486;-55
2023/03/03 00:24:23;;;;;;;41.80;21.20;;;;;;;2.16;62.05;100662.58;105399;1256;64843;-55
2023/03/03 00:26:54;;;;;;;43.80;23.60;;;;;;;2.15;61.94;100656.20;105358;1260;60578;-54
2023/03/03 00:29:38;;;;;;;47.50;22.80;;;;;;;2.14;61.87;100654.54;105451;1256;60543;-55
2023/03/03 00:32:25;;;;;;;36.10;19.90;;;;;;;2.11;61.96;100648.95;105440;1260;65344;-56
2023/03/03 00:34:55;;;;;;;43.30;21.20;;;;;;;2.08;61.91;100645.95;105467;1256;62436;-56
2023/03/03 00:37:29;;;;;;;30.90;16.00;;;;;;;2.06;62.10;100641.89;105449;1256;73347;-55
2023/03/03 00:40:01;;;;;;;34.70;18.40;;;;;;;2.05;62.17;100637.58;105445;1259;60563;-56
2023/03/03 00:42:31;;;;;;;37.50;16.10;;;;;;;2.05;62.16;100633.79;105598;1256;60574;-55
2023/03/03 00:48:44;;;;;;;28.20;11.30;;;;;;;2.01;62.43;100630.13;105438;1256;62343;-56
2023/03/03 00:51:25;;;;;;;26.40;12.60;;;;;;;1.96;62.61;100626.85;105509;1256;73653;-55
2023/03/03 00:53:55;;;;;;;26.60;14.40;;;;;;;1.93;62.68;100623.55;105409;1261;60490;-56
2023/03/03 00:56:23;;;;;;;26.10;12.30;;;;;;;1.88;62.67;100616.81;105500;1256;60462;-55
2023/03/03 00:58:53;;;;;;;27.00;13.10;;;;;;;1.86;62.89;100611.36;105427;1260;74874;-55
2023/03/03 01:01:24;;;;;;;22.20;12.40;;;;;;;1.87;63.02;100612.34;105436;1256;72012;-53
2023/03/03 01:03:54;;;;;;;27.20;13.00;;;;;;;1.89;63.06;100609.17;105483;1255;64563;-53
2023/03/03 01:06:22;;;;;;;17.50;8.90;;;;;;;1.97;63.00;100610.23;105515;1260;61135;-54
2023/03/03 01:08:51;;;;;;;15.90;7.20;;;;;;;2.12;63.06;100607.04;105430;1261;60484;-54
2023/03/03 01:11:22;;;;;;;17.40;7.20;;;;;;;2.25;63.15;100603.89;105489;1259;74755;-54
2023/03/03 01:13:51;;;;;;;16.40;6.60;;;;;;;2.39;63.19;100605.55;105378;1256;62614;-53
2023/03/03 01:16:25;;;;;;;14.70;6.50;;;;;;;2.58;62.93;100602.16;105253;1260;65045;-53
2023/03/03 01:22:33;;;;;;;13.90;5.90;;;;;;;2.78;62.77;100592.95;105421;1254;60565;-54
2023/03/03 01:25:05;;;;;;;16.30;6.90;;;;;;;2.76;62.96;100590.77;105498;1256;75725;-55
2023/03/03 01:27:34;;;;;;;11.40;5.10;;;;;;;2.77;63.00;100589.89;105495;1260;71198;-54
2023/03/03 01:30:05;;;;;;;16.80;5.10;;;;;;;2.76;62.97;100587.16;105439;1256;73336;-55
2023/03/03 01:32:35;;;;;;;10.00;5.10;;;;;;;2.75;63.14;100585.99;105486;1254;60453;-54
2023/03/03 01:35:04;;;;;;;11.60;5.30;;;;;;;2.70;63.03;100582.58;105475;1256;61297;-55
2023/03/03 01:37:34;;;;;;;14.60;6.50;;;;;;;2.66;63.19;100583.23;105495;1256;66417;-54
2023/03/03 01:40:05;;;;;;;12.30;4.90;;;;;;;2.63;63.25;100582.54;105397;1256;62516;-54
2023/03/03 01:42:35;;;;;;;12.20;5.50;;;;;;;2.60;63.38;100578.33;105395;1261;64943;-54
2023/03/03 01:45:30;;;;;;;14.60;5.90;;;;;;;2.56;63.54;100575.20;105433;1256;60617;-54
2023/03/03 01:48:31;;;;;;;14.10;5.90;;;;;;;2.55;63.69;100570.58;105512;1256;60585;-54
2023/03/03 01:51:20;;;;;;;11.20;5.30;;;;;;;2.54;63.71;100565.23;105450;1256;66181;-54
2023/03/03 01:53:51;;;;;;;10.70;4.00;;;;;;;2.55;63.89;100566.23;105447;1256;62748;-54
2023/03/03 01:56:20;;;;;;;9.20;4.60;;;;;;;2.57;63.88;100561.83;105506;1256;73504;-53
2023/03/03 01:59:02;;;;;;;12.30;4.80;;;;;;;2.57;63.97;100562.35;105456;1256;60377;-54
2023/03/03 02:01:31;;;;;;;10.00;4.20;;;;;;;2.62;63.81;100562.11;105497;1256;60481;-54
2023/03/03 02:04:00;;;;;;;9.70;3.40;;;;;;;2.71;63.69;100565.17;105439;1261;73616;-54
2023/03/03 02:06:32;;;;;;;9.00;4.10;;;;;;;2.80;63.58;100559.06;105441;1256;71436;-54
2023/03/03 02:09:11;;;;;;;9.00;4.10;;;;;;;2.90;63.47;100554.48;105552;1261;65024;-54
2023/03/03 02:11:42;;;;;;;11.10;4.90;;;;;;;3.00;63.28;100551.25;105423;1256;60538;-54
2023/03/03 02:14:11;;;;;;;14.60;6.40;;;;;;;3.06;63.18;100547.86;105482;1259;60442;-54
2023/03/03 02:16:44;;;;;;;10.10;4.60;;;;;;;3.09;63.12;100544.94;105517;1259;66246;-54
2023/03/03 02:19:29;;;;;;;13.40;4.90;;;;;;;3.11;63.04;100544.13;105454;1260;62677;-54
2023/03/03 02:21:58;;;;;;;8.70;4.10;;;;;;;3.12;62.86;100543.21;105462;1256;64936;-54
2023/03/03 02:24:30;;;;;;;16.20;11.50;;;;;;;3.11;62.85;100542.59;105506;1256;60702;-54
2023/03/03 02:27:01;;;;;;;12.30;5.30;;;;;;;3.08;62.77;100541.68;105552;1256;60431;-54
2023/03/03 02:29:31;;;;;;;12.40;5.50;;;;;;;3.04;62.76;100542.39;105497;1256;74477;-54
2023/03/03 02:31:59;;;;;;;10.40;4.30;;;;;;;2.99;62.85;100537.95;105483;1256;71134;-54
2023/03/03 02:34:28;;;;;;;11.20;5.50;;;;;;;2.95;63.05;100541.60;105557;1261;64721;-54
2023/03/03 02:36:57;;;;;;;12.20;5.50;;;;;;;2.92;63.13;100541.05;105520;1256;60378;-54
2023/03/03 02:39:26;;;;;;;17.40;12.30;;;;;;;2.89;63.20;100538.91;105522;1257;60490;-54
2023/03/03 02:42:07;;;;;;;14.20;5.80;;;;;;;2.87;63.37;100530.70;105439;1257;74935;-53
2023/03/03 02:44:47;;;;;;;10.60;4.80;;;;;;;2.92;63.33;100532.20;105529;1256;62747;-54
2023/03/03 02:47:16;;;;;;;11.40;3.90;;;;;;;3.00;63.22;100530.97;105519;1256;65074;-54
2023/03/03 02:49:44;;;;;;;11.30;3.60;;;;;;;3.06;63.15;100529.48;105376;1256;60524;-54
2023/03/03 02:52:13;;;;;;;10.90;4.80;;;;;;;3.12;63.05;100527.98;105334;1256;61283;-54
2023/03/03 02:54:44;;;;;;;18.00;11.00;;;;;;;3.15;62.98;100527.66;105483;1260;66040;-54
2023/03/03 02:57:13;;;;;;;9.10;4.10;;;;;;;3.15;62.97;100527.34;105498;1257;62723;-54
2023/03/03 02:59:41;;;;;;;9.50;3.90;;;;;;;3.14;62.91;100524.28;105478;1256;65093;-54
2023/03/03 03:02:12;;;;;;;12.90;4.40;;;;;;;3.11;62.93;100522.69;105498;1255;60434;-55
2023/03/03 03:04:42;;;;;;;10.20;4.30;;;;;;;3.07;62.94;100521.13;105474;1260;60572;-54
2023/03/03 03:07:13;;;;;;;15.50;10.70;;;;;;;3.03;63.00;100516.60;105638;1261;66166;-54
2023/03/03 03:09:44;;;;;;;11.20;6.20;;;;;;;3.02;63.00;100513.91;105464;1260;61666;-54
2023/03/03 03:12:14;;;;;;;10.20;4.70;;;;;;;2.99;63.13;100514.41;105563;1260;65030;-54
2023/03/03 03:14:43;;;;;;;11.00;3.50;;;;;;;2.94;63.18;100507.88;105565;1256;60400;-54
2023/03/03 03:17:12;;;;;;;10.70;4.70;;;;;;;2.91;63.34;100508.49;105575;1260;60572;-54
2023/03/03 03:19:40;;;;;;;8.30;4.20;;;;;;;2.87;63.53;100502.45;105532;1260;74467;-54
2023/03/03 03:22:09;;;;;;;9.70;4.70;;;;;;;2.85;63.62;100501.67;105497;1256;62452;-54
2023/03/03 03:24:39;;;;;;;12.00;4.10;;;;;;;2.89;63.48;100498.72;105555;1256;64810;-57
2023/03/03 03:27:08;;;;;;;10.80;4.30;;;;;;;2.97;63.40;100499.55;105432;1260;60560;-54
2023/03/03 03:29:38;;;;;;;23.00;14.00;;;;;;;3.06;63.30;100497.91;105670;1255;60537;-54
2023/03/03 03:32:08;;;;;;;15.00;5.60;;;;;;;3.15;63.13;100499.05;106061;1256;65199;-54
2023/03/03 03:34:37;;;;;;;20.40;7.80;;;;;;;3.22;63.07;100498.08;105528;1256;62444;-54
2023/03/03 03:37:08;;;;;;;11.50;4.80;;;;;;;3.25;63.01;100501.88;105544;1260;64897;-54
2023/03/03 03:39:57;;;;;;;10.70;4.60;;;;;;;3.24;62.95;100492.77;105265;1256;60525;-54
2023/03/03 03:42:26;;;;;;;8.30;5.10;;;;;;;3.20;62.78;100496.95;105360;1261;60480;-53
2023/03/03 03:44:56;;;;;;;10.10;4.60;;;;;;;3.16;62.81;100494.36;105296;1256;74677;-54
2023/03/03 03:47:27;;;;;;;10.30;4.00;;;;;;;3.12;62.90;100485.50;105534;1256;62489;-57
2023/03/03 03:49:57;;;;;;;12.90;5.90;;;;;;;3.14;62.81;100486.30;105512;1260;64994;-54
2023/03/03 03:52:26;;;;;;;11.00;5.70;;;;;;;3.10;62.96;100483.54;105447;1256;60458;-54
2023/03/03 03:54:54;;;;;;;11.30;5.00;;;;;;;3.07;63.01;100479.19;105453;1256;60460;-54
2023/03/03 03:57:23;;;;;;;11.40;5.30;;;;;;;3.06;63.08;100478.02;105283;1261;65842;-54
2023/03/03 04:00:15;;;;;;;13.00;7.20;;;;;;;3.04;63.20;100477.25;105410;1258;63840;-54
2023/03/03 04:02:50;;;;;;;11.20;5.80;;;;;;;3.03;63.35;100475.89;105398;1256;64439;-54
2023/03/03 04:05:19;;;;;;;11.10;4.90;;;;;;;3.04;63.33;100471.67;105726;1256;61206;-54
2023/03/03 04:07:47;;;;;;;8.70;3.90;;;;;;;3.09;63.36;100468.85;105538;1256;60480;-54
2023/03/03 04:10:17;;;;;;;10.30;4.20;;;;;;;3.11;63.37;100469.93;105460;1259;66690;-54
2023/03/03 04:12:46;;;;;;;11.00;4.20;;;;;;;3.21;63.25;100471.38;105458;1256;62502;-54
2023/03/03 04:15:15;;;;;;;18.20;12.20;;;;;;;3.28;63.07;100470.20;105472;1256;63972;-54
2023/03/03 04:17:44;;;;;;;13.50;5.40;;;;;;;3.29;63.04;100467.54;105505;1256;60463;-54
2023/03/03 04:20:14;;;;;;;11.10;5.00;;;;;;;3.32;63.05;100458.05;105460;1256;60397;-54
2023/03/03 04:22:43;;;;;;;18.60;12.80;;;;;;;3.34;62.94;100459.33;105486;1260;66156;-54
2023/03/03 04:25:14;;;;;;;10.30;4.90;;;;;;;3.33;62.83;100456.94;105529;1260;70210;-54
2023/03/03 04:27:42;;;;;;;11.80;4.70;;;;;;;3.30;62.86;100453.98;105478;1260;72610;-54
2023/03/03 04:30:12;;;;;;;12.00;5.20;;;;;;;3.24;62.87;100453.23;105536;1261;60467;-54
2023/03/03 04:32:40;;;;;;;12.60;5.60;;;;;;;3.19;63.07;100449.13;105670;1256;60404;-54
2023/03/03 04:35:10;;;;;;;16.60;11.70;;;;;;;3.17;63.20;100446.63;105611;1260;66208;-54
2023/03/03 04:37:41;;;;;;;11.00;5.10;;;;;;;3.16;63.18;100445.13;105486;1256;62478;-54
2023/03/03 04:40:10;;;;;;;10.40;5.00;;;;;;;3.19;63.16;100441.31;105452;1257;73432;-53
2023/03/03 04:42:40;;;;;;;11.70;5.70;;;;;;;3.28;63.07;100438.45;105518;1260;60553;-53
2023/03/03 04:45:13;;;;;;;10.30;4.50;;;;;;;3.38;62.89;100432.45;105428;1256;60591;-54
2023/03/03 04:47:42;;;;;;;11.70;5.00;;;;;;;3.44;62.86;100431.77;105442;1256;65059;-53
2023/03/03 04:50:11;;;;;;;18.10;12.00;;;;;;;3.47;62.79;100433.02;105525;1259;62392;-53
2023/03/03 04:52:40;;;;;;;11.80;4.90;;;;;;;3.48;62.68;100434.73;105468;1261;64687;-53
2023/03/03 04:55:09;;;;;;;13.10;5.10;;;;;;;3.47;62.75;100435.10;105459;1256;60505;-54
2023/03/03 04:57:38;;;;;;;11.50;6.30;;;;;;;3.46;62.77;100436.39;105481;1256;60480;-55
2023/03/03 05:00:11;;;;;;;11.50;5.60;;;;;;;3.43;62.79;100436.67;105465;1256;65229;-52
2023/03/03 05:02:46;;;;;;;13.60;5.10;;;;;;;3.41;62.86;100434.73;105389;1256;62654;-52
2023/03/03 05:05:15;;;;;;;20.30;12.90;;;;;;;3.38;62.90;100437.45;105495;1259;64777;-52
2023/03/03 05:07:43;;;;;;;13.40;5.70;;;;;;;3.36;63.01;100439.64;105496;1260;61043;-52
2023/03/03 05:10:11;;;;;;;17.10;5.70;;;;;;;3.35;63.03;100440.05;105455;1254;60473;-52
2023/03/03 05:12:39;;;;;;;11.20;5.30;;;;;;;3.31;63.09;100437.64;105527;1261;66144;-52
2023/03/03 05:15:09;;;;;;;10.60;4.60;;;;;;;3.26;63.09;100438.41;105421;1260;62946;-52
2023/03/03 05:17:38;;;;;;;20.30;12.90;;;;;;;3.21;63.33;100439.50;105487;1260;65072;-52
2023/03/03 05:20:09;;;;;;;10.60;4.30;;;;;;;3.24;63.37;100441.80;105425;1256;62131;-52
2023/03/03 05:22:40;;;;;;;8.90;3.70;;;;;;;3.32;63.36;100443.64;105465;1261;60454;-52
2023/03/03 05:25:09;;;;;;;9.50;4.00;;;;;;;3.41;63.30;100443.90;105443;1256;74586;-52
2023/03/03 05:27:38;;;;;;;17.10;11.30;;;;;;;3.49;63.10;100442.09;105372;1259;62741;-52
2023/03/03 05:30:08;;;;;;;10.20;5.00;;;;;;;3.57;62.93;100438.76;105383;1260;64817;-52
2023/03/03 05:32:36;;;;;;;17.60;11.40;;;;;;;3.59;62.87;100434.33;105350;1261;60472;-53
2023/03/03 05:35:05;;;;;;;11.70;4.30;;;;;;;3.58;62.83;100432.14;105404;1256;60488;-52
2023/03/03 05:37:34;;;;;;;9.50;4.30;;;;;;;3.58;62.85;100434.23;105388;1257;66126;-53
2023/03/03 05:40:04;;;;;;;10.20;5.00;;;;;;;3.59;62.83;100430.52;105398;1256;62333;-53
2023/03/03 05:42:32;;;;;;;19.40;11.00;;;;;;;3.61;62.81;100427.81;105271;1261;64914;-54
2023/03/03 05:45:02;;;;;;;18.60;6.00;;;;;;;3.61;62.85;100426.44;105676;1260;60458;-53
2023/03/03 05:47:30;;;;;;;12.60;5.60;;;;;;;3.59;62.84;100430.52;105434;1260;61325;-53
2023/03/03 05:49:59;;;;;;;15.90;11.20;;;;;;;3.58;62.92;100429.75;105557;1258;66182;-53
2023/03/03 05:52:28;;;;;;;12.00;6.70;;;;;;;3.57;62.87;100429.94;105431;1260;61999;-53
2023/03/03 05:54:57;;;;;;;8.90;3.50;;;;;;;3.64;62.76;100431.16;105367;1261;72109;-53
2023/03/03 05:57:27;;;;;;;17.10;10.30;;;;;;;3.72;62.64;100423.29;105538;1260;60585;-53
2023/03/03 05:59:59;;;;;;;10.40;4.20;;;;;;;3.81;62.54;100423.70;105446;1260;60512;-54
2023/03/03 06:02:28;;;;;;;11.00;4.50;;;;;;;3.87;62.39;100423.36;105521;1254;64824;-53
2023/03/03 06:04:56;;;;;;;9.60;5.00;;;;;;;3.89;62.18;100422.58;105645;1256;62835;-53
2023/03/03 06:07:24;;;;;;;15.60;10.30;;;;;;;3.87;62.18;100420.41;105503;1260;73847;-53
2023/03/03 06:09:53;;;;;;;9.90;4.10;;;;;;;3.86;62.27;100417.52;105425;1257;61763;-53
2023/03/03 06:12:24;;;;;;;9.50;4.80;;;;;;;3.87;62.28;100416.77;105488;1260;60471;-53
2023/03/03 06:14:54;;;;;;;8.20;3.60;;;;;;;3.88;62.26;100417.92;105420;1262;73555;-53
2023/03/03 06:17:26;;;;;;;13.10;5.20;;;;;;;3.88;62.23;100417.61;105382;1256;63035;-53
2023/03/03 06:19:59;;;;;;;12.30;4.20;;;;;;;3.87;62.25;100417.98;105357;1261;64684;-56
2023/03/03 06:22:29;;;;;;;12.00;4.70;;;;;;;3.89;62.20;100413.86;105396;1255;60598;-53
2023/03/03 06:24:57;;;;;;;12.80;5.10;;;;;;;3.92;62.11;100416.35;105372;1261;60505;-53
2023/03/03 06:27:25;;;;;;;11.80;4.30;;;;;;;3.93;62.01;100411.11;105470;1261;66193;-53
2023/03/03 06:29:54;;;;;;;11.50;5.60;;;;;;;3.93;61.80;100411.77;105465;1260;71239;-53
2023/03/03 06:32:22;;;;;;;15.20;10.90;;;;;;;3.97;61.80;100411.95;105455;1256;73591;-55
2023/03/03 06:34:50;;;;;;;11.80;3.60;;;;;;;4.05;61.63;100409.81;105441;1257;60476;-53
2023/03/03 06:37:19;;;;;;;14.40;10.20;;;;;;;4.12;61.37;100406.66;105379;1258;60560;-53
2023/03/03 06:39:47;;;;;;;8.10;3.30;;;;;;;4.16;61.18;100409.02;105632;1257;66140;-53
2023/03/03 06:42:17;;;;;;;17.30;11.10;;;;;;;4.17;61.03;100407.23;105428;1260;71261;-53
2023/03/03 06:44:46;;;;;;;11.70;4.20;;;;;;;4.19;60.94;100405.94;105453;1260;65018;-53
2023/03/03 06:47:15;;;;;;;18.80;12.10;;;;;;;4.21;60.87;100406.33;105443;1256;60567;-53
2023/03/03 06:49:47;;;;;;;10.60;4.70;;;;;;;4.23;60.67;100399.98;105313;1259;60445;-53
2023/03/03 06:52:22;;;;;;;9.00;4.60;;;;;;;4.22;60.63;100400.22;105338;1256;74263;-53
2023/03/03 06:54:58;;;;;;;9.80;4.30;;;;;;;4.23;60.75;100400.31;105454;1256;62504;-53
2023/03/03 06:57:26;;;;;;;14.70;10.00;;;;;;;4.23;60.47;100399.77;105369;1259;64844;-54
2023/03/03 07:00:14;;;;;;;8.70;4.40;;;;;;;4.22;60.30;100394.81;105363;1260;60564;-54
2023/03/03 07:02:43;;;;;;;12.10;5.40;;;;;;;4.23;60.17;100397.39;105393;1260;60792;-53
2023/03/03 07:05:16;;;;;;;15.20;9.80;;;;;;;4.22;60.06;100398.11;105591;1257;65267;-54
2023/03/03 07:07:45;;;;;;;9.40;3.80;;;;;;;4.21;60.13;100399.56;105426;1260;71477;-55
2023/03/03 07:10:25;;;;;;;15.60;9.40;;;;;;;4.30;59.96;100400.30;105445;1262;73700;-56
2023/03/03 07:13:01;;;;;;;7.20;3.00;;;;;;;4.40;59.55;100400.83;105409;1261;60576;-55
2023/03/03 07:15:33;;;;;;;16.30;9.80;;;;;;;4.42;59.32;100394.46;105558;1256;60687;-54
2023/03/03 07:18:03;;;;;;;9.80;5.20;;;;;;;4.42;59.36;100394.99;105345;1260;66294;-54
2023/03/03 07:20:35;;;;;;;15.00;9.70;;;;;;;4.42;59.20;100390.08;105216;1262;62834;-53
2023/03/03 07:23:24;;;;;;;9.40;3.10;;;;;;;4.45;59.26;100387.36;105239;1260;64001;-54
2023/03/03 07:25:55;;;;;;;13.50;9.30;;;;;;;4.49;59.09;100386.79;105342;1260;60562;-53
2023/03/03 07:28:25;;;;;;;11.30;3.40;;;;;;;4.50;58.98;100384.80;105419;1260;61355;-54
2023/03/03 07:30:57;;;;;;;9.50;3.80;;;;;;;4.50;58.83;100387.95;105372;1260;66033;-56
2023/03/03 07:33:39;;;;;;;11.50;4.80;;;;;;;4.49;58.80;100382.24;105485;1260;71233;-55
2023/03/03 07:36:35;;;;;;;13.80;9.20;;;;;;;4.50;58.63;100384.33;105351;1260;65886;-52
2023/03/03 07:39:35;;;;;;;9.50;4.00;;;;;;;4.48;58.38;100385.08;105459;1259;60454;-53
2023/03/03 07:42:22;;;;;;;11.80;4.60;;;;;;;4.44;58.15;100387.55;105359;1258;60425;-53
2023/03/03 07:44:59;;;;;;;7.70;3.10;;;;;;;4.42;58.33;100378.63;105452;1260;65909;-54
2023/03/03 07:47:35;;;;;;;9.80;3.30;;;;;;;4.44;58.39;100379.25;105545;1255;71047;-53
2023/03/03 07:50:14;;;;;;;15.30;9.60;;;;;;;4.46;58.33;100378.75;105515;1257;63909;-54
2023/03/03 07:52:47;;;;;;;9.40;4.00;;;;;;;4.50;58.03;100381.18;105447;1260;60552;-54
2023/03/03 07:55:19;;;;;;;16.00;9.70;;;;;;;4.59;57.84;100378.59;105419;1256;60556;-54
2023/03/03 07:57:47;;;;;;;14.20;9.90;;;;;;;4.72;57.48;100379.13;105421;1260;73861;-54
2023/03/03 08:00:15;;;;;;;9.50;3.70;;;;;;;4.79;57.18;100381.66;105336;1261;71175;-54
2023/03/03 08:02:47;;;;;;;7.70;4.00;;;;;;;4.82;57.14;100375.41;105546;1260;73594;-54
2023/03/03 08:05:31;;;;;;;12.10;4.30;;;;;;;4.85;57.04;100372.30;105535;1267;60545;-54
2023/03/03 08:08:11;;;;;;;8.40;4.00;;;;;;;4.88;56.93;100370.21;105412;1260;60493;-53
2023/03/03 08:10:49;;;;;;;11.90;4.40;;;;;;;4.90;56.73;100368.01;105423;1260;66231;-54
2023/03/03 08:13:20;;;;;;;15.00;10.20;;;;;;;4.90;56.52;100366.99;105488;1260;69955;-54
2023/03/03 08:15:51;;;;;;;11.60;4.10;;;;;;;4.90;56.14;100364.36;105223;1260;315660;-54
2023/03/03 08:19:31;;;;;;;9.50;4.00;;;;;;;4.72;56.26;100367.28;102520;1295;601038;-53
2023/03/03 08:22:06;;;;;;;8.00;4.00;;;;;;;4.83;56.11;100361.09;104633;1272;59326;-53
2023/03/03 08:24:38;;;;;;;15.60;9.00;;;;;;;4.82;55.74;100364.08;104624;1266;59389;-52
2023/03/03 08:27:06;;;;;;;10.90;3.60;;;;;;;4.82;55.61;100358.73;104781;1270;64634;-53
2023/03/03 08:29:35;;;;;;;17.90;9.80;;;;;;;4.82;55.65;100353.33;104748;1270;63104;-53
2023/03/03 08:32:04;;;;;;;10.00;3.50;;;;;;;4.85;55.52;100354.36;104741;1270;190529;-54
2023/03/03 08:34:32;;;;;;;13.90;8.80;;;;;;;4.87;55.36;100351.82;104953;1269;60790;-53
2023/03/03 08:37:02;;;;;;;8.10;3.30;;;;;;;4.88;55.15;100349.31;104952;1264;59401;-54
2023/03/03 08:39:30;;;;;;;9.40;3.80;;;;;;;4.91;54.73;100351.08;105037;1266;64482;-53
2023/03/03 08:41:58;;;;;;;9.70;3.60;;;;;;;4.93;54.68;100348.54;104972;1266;71171;-53
2023/03/03 08:44:27;;;;;;;7.90;4.00;;;;;;;4.98;54.77;100350.18;105017;1267;73598;-53
2023/03/03 08:46:55;;;;;;;14.20;9.30;;;;;;;5.04;54.57;100345.84;105092;1264;59736;-53
2023/03/03 08:49:25;;;;;;;10.20;3.90;;;;;;;5.10;53.63;100348.30;104983;1269;59660;-53
2023/03/03 08:51:53;;;;;;;11.00;4.40;;;;;;;5.11;53.32;100340.92;105021;1264;64340;-53
2023/03/03 08:54:21;;;;;;;15.10;9.50;;;;;;;5.11;53.50;100340.89;104962;1267;71241;-52
2023/03/03 08:56:50;;;;;;;10.20;4.70;;;;;;;5.15;52.85;100338.75;105223;1264;73738;-53
2023/03/03 08:59:19;;;;;;;16.60;10.00;;;;;;;5.16;52.45;100331.04;104967;1265;59710;-53
2023/03/03 09:01:47;;;;;;;14.50;9.10;;;;;;;5.19;52.77;100324.29;105021;1263;61313;-54
2023/03/03 09:04:17;;;;;;;7.60;3.50;;;;;;;5.25;52.83;100327.27;105060;1267;73941;-54
2023/03/03 09:06:47;;;;;;;8.70;3.20;;;;;;;5.29;52.83;100325.08;105024;1264;62642;-53
2023/03/03 09:09:16;;;;;;;8.50;4.40;;;;;;;5.33;52.56;100320.33;105218;1264;65309;-53
2023/03/03 09:11:46;;;;;;;15.70;9.70;;;;;;;5.38;52.31;100322.60;105080;1266;59743;-53
2023/03/03 09:14:16;;;;;;;14.00;9.50;;;;;;;5.43;52.01;100320.06;104869;1264;61336;-52
2023/03/03 09:16:52;;;;;;;9.30;4.50;;;;;;;5.47;51.81;100312.89;105011;1264;74026;-53
2023/03/03 09:19:23;;;;;;;14.00;4.80;;;;;;;5.52;51.52;100314.66;105173;1264;71285;-53
2023/03/03 09:21:53;;;;;;;8.00;3.80;;;;;;;5.58;51.04;100312.05;105085;1264;73578;-52
2023/03/03 09:24:31;;;;;;;14.00;8.10;;;;;;;5.65;50.73;100305.72;105144;1264;60725;-52
2023/03/03 09:27:01;;;;;;;8.30;3.20;;;;;;;5.71;50.08;100301.70;104777;1264;61401;-53
2023/03/03 09:29:36;;;;;;;16.10;9.70;;;;;;;5.76;49.97;100297.02;105033;1263;73011;-53
2023/03/03 09:32:16;;;;;;;7.70;3.10;;;;;;;5.83;49.68;100296.24;105019;1264;71160;-52
2023/03/03 09:34:44;;;;;;;13.90;8.10;;;;;;;5.89;49.36;100289.64;105010;1264;63767;-53
2023/03/03 09:37:31;;;;;;;15.00;8.50;;;;;;;5.96;49.29;100289.38;104823;1264;60410;-53
2023/03/03 09:39:59;;;;;;;13.30;9.00;;;;;;;6.04;48.77;100288.04;105116;1267;59685;-52
2023/03/03 09:43:02;;;;;;;10.80;3.70;;;;;;;6.09;48.32;100284.91;105141;1264;74016;-51
2023/03/03 09:45:56;;;;;;;14.80;8.30;;;;;;;6.08;48.21;100282.01;105062;1266;61314;-51
2023/03/03 09:48:32;;;;;;;8.70;3.50;;;;;;;6.10;48.38;100272.79;104963;1263;64933;-52
2023/03/03 09:51:11;;;;;;;8.70;3.40;;;;;;;6.16;48.06;100265.48;105026;1264;59745;-53
2023/03/03 09:53:50;;;;;;;13.60;8.40;;;;;;;6.18;47.74;100258.44;105030;1267;59724;-53
2023/03/03 09:56:27;;;;;;;13.00;7.70;;;;;;;6.19;47.82;100254.91;104933;1267;65413;-54
2023/03/03 09:59:20;;;;;;;12.90;8.10;;;;;;;6.21;47.67;100249.88;105135;1266;61359;-53
2023/03/03 10:01:54;;;;;;;13.40;7.50;;;;;;;6.22;47.47;100243.38;105525;1260;65201;-53
2023/03/03 10:04:41;;;;;;;14.10;8.10;;;;;;;6.21;47.62;100245.14;105439;1259;59685;-54
2023/03/03 10:07:25;;;;;;;13.60;8.30;;;;;;;6.20;47.50;100242.08;105505;1257;59567;-52
2023/03/03 10:10:12;;;;;;;11.80;8.00;;;;;;;6.18;47.42;100235.30;105465;1257;65367;-54
2023/03/03 10:12:53;;;;;;;11.30;7.40;;;;;;;6.15;47.44;100228.80;105346;1257;62361;-53
2023/03/03 10:15:40;;;;;;;9.10;3.20;;;;;;;6.18;47.64;100229.17;105374;1257;65076;-52
2023/03/03 10:18:11;;;;;;;6.40;2.80;;;;;;;6.22;47.39;100228.73;105560;1260;59627;-54
2023/03/03 10:21:04;;;;;;;9.40;3.70;;;;;;;6.22;47.12;100224.01;105451;1259;59564;-53
2023/03/03 10:23:48;;;;;;;13.20;7.90;;;;;;;6.25;47.09;100219.14;105453;1260;65451;-54
2023/03/03 10:26:29;;;;;;;13.10;8.30;;;;;;;6.29;46.87;100212.55;105491;1257;62513;-53
2023/03/03 10:29:20;;;;;;;14.80;8.20;;;;;;;6.35;46.84;100211.34;105493;1257;64638;-54
2023/03/03 10:32:04;;;;;;;12.10;8.50;;;;;;;6.38;46.71;100213.25;105573;1260;60477;-53
2023/03/03 10:34:51;;;;;;;6.40;2.70;;;;;;;6.38;46.81;100208.17;105571;1256;59740;-54
2023/03/03 10:37:39;;;;;;;14.90;7.90;;;;;;;6.39;46.61;100205.48;105401;1259;65412;-53
2023/03/03 10:40:31;;;;;;;11.00;3.80;;;;;;;6.41;46.31;100193.83;105501;1256;62609;-53
2023/03/03 10:43:02;;;;;;;13.60;8.80;;;;;;;6.47;46.06;100191.36;105452;1256;65023;-54
2023/03/03 10:45:39;;;;;;;13.80;8.40;;;;;;;6.53;45.86;100177.39;105469;1259;59612;-53
2023/03/03 10:48:16;;;;;;;9.30;3.90;;;;;;;6.62;45.53;100179.61;105421;1256;60276;-53
2023/03/03 10:50:53;;;;;;;11.80;7.10;;;;;;;6.72;45.29;100171.27;105465;1256;73693;-54
2023/03/03 10:53:42;;;;;;;13.10;8.30;;;;;;;6.82;44.64;100154.20;105456;1257;70497;-54
2023/03/03 10:56:26;;;;;;;13.60;7.80;;;;;;;6.96;44.57;100159.73;105499;1256;72577;-54
2023/03/03 10:59:30;;;;;;;13.70;8.70;;;;;;;7.06;44.37;100146.83;105444;1255;60470;-53
2023/03/03 11:02:05;;;;;;;11.50;7.30;;;;;;;7.18;43.82;100147.16;105509;1255;60453;-53
2023/03/03 11:04:55;;;;;;;4.80;1.80;;;;;;;7.24;43.14;100144.48;105522;1256;72841;-55
2023/03/03 11:07:32;;;;;;;6.40;2.30;;;;;;;7.29;43.35;100135.96;105468;1257;71010;-53
2023/03/03 11:10:58;;;;;;;10.60;6.60;;;;;;;7.37;42.59;100133.50;105463;1259;72478;-53
2023/03/03 11:13:54;;;;;;;6.50;2.50;;;;;;;7.41;42.60;100129.02;104989;1263;59573;-53
2023/03/03 11:16:29;;;;;;;6.00;1.90;;;;;;;7.40;42.67;100117.23;105076;1263;61182;-54
2023/03/03 11:19:02;;;;;;;9.60;5.80;;;;;;;7.44;43.11;100115.52;105320;1259;74015;-54
2023/03/03 11:21:33;;;;;;;9.40;5.70;;;;;;;7.57;43.23;100115.48;105659;1259;70298;-54
2023/03/03 11:24:18;;;;;;;8.00;4.00;;;;;;;7.72;42.24;100117.70;105540;1257;73692;-54
2023/03/03 11:27:11;;;;;;;6.00;2.20;;;;;;;7.80;41.59;100107.55;105433;1260;59641;-53
2023/03/03 11:30:06;;;;;;;8.90;5.10;;;;;;;7.81;41.11;100113.23;105462;1256;59552;-54
2023/03/03 11:32:34;;;;;;;10.70;6.30;;;;;;;7.81;41.33;100116.16;105504;1256;65185;-54
2023/03/03 11:35:06;;;;;;;9.10;5.80;;;;;;;7.79;41.93;100109.33;105482;1257;62852;-53
2023/03/03 11:37:55;;;;;;;8.90;5.20;;;;;;;7.77;41.77;100111.24;105489;1257;64199;-55
2023/03/03 11:40:29;;;;;;;9.20;5.30;;;;;;;7.70;41.75;100105.49;105552;1257;59659;-54
2023/03/03 11:43:36;;;;;;;9.30;5.30;;;;;;;7.62;41.71;100098.73;105551;1257;59647;-54
2023/03/03 11:46:10;;;;;;;4.80;2.20;;;;;;;7.55;41.86;100100.48;105489;1256;65377;-54
2023/03/03 11:48:45;;;;;;;8.20;4.80;;;;;;;7.48;41.80;100103.39;105560;1259;61661;-53
2023/03/03 11:51:41;;;;;;;8.10;4.70;;;;;;;7.36;42.01;100098.65;105425;1257;64847;-53
2023/03/03 11:54:23;;;;;;;3.40;1.40;;;;;;;7.26;42.24;100095.90;105586;1257;59670;-53
2023/03/03 11:57:04;;;;;;;7.20;3.90;;;;;;;7.16;42.52;100093.59;105406;1256;59667;-53